Time;durP1;ratioP1;P1;durP2;ratioP2;P2;SDS_P1;SDS_P2;PMS_P1;PMS_P2;Temp;Humidity;BMP_temperature;BMP_pressure;BME280_temperature;BME280_humidity;BME280_pressure;Samples;Min_cycle;Max_cycle;Signal;HPM_P1;HPM_P2
2022/11/10 00:07:52;;;;;;;9.90;4.67;;;15.80;99.90;;;;;;7522900;79;26371;-67
2022/11/10 00:17:55;;;;;;;9.53;4.53;;;15.90;99.90;;;;;;7509277;77;26373;-68
2022/11/10 00:28:01;;;;;;;9.30;3.97;;;15.90;99.90;;;;;;7508899;77;26344;-68
2022/11/10 00:38:04;;;;;;;8.00;4.20;;;15.90;99.90;;;;;;7487437;77;26423;-68
2022/11/10 00:48:06;;;;;;;7.73;4.20;;;15.90;99.90;;;;;;7513989;77;26819;-67
2022/11/10 00:58:09;;;;;;;9.27;3.50;;;15.90;99.90;;;;;;7488363;77;26301;-67
2022/11/10 01:08:11;;;;;;;7.63;3.40;;;15.90;99.90;;;;;;7456641;77;26658;-67
2022/11/10 01:18:14;;;;;;;8.30;3.97;;;15.80;99.90;;;;;;7447826;79;26284;-67
2022/11/10 01:28:17;;;;;;;8.57;3.43;;;15.80;99.90;;;;;;7473840;77;26346;-67
2022/11/10 01:38:19;;;;;;;7.17;3.47;;;15.80;99.90;;;;;;7483537;77;26870;-66
2022/11/10 01:48:39;;;;;;;4.80;2.83;;;15.90;99.90;;;;;;7503558;77;26269;-67
2022/11/10 01:58:45;;;;;;;5.57;2.77;;;15.80;99.90;;;;;;7499200;79;26388;-67
2022/11/10 02:08:48;;;;;;;5.50;3.37;;;15.90;99.90;;;;;;7490637;77;26557;-67
2022/11/10 02:18:51;;;;;;;5.67;2.90;;;15.80;99.90;;;;;;7482413;77;27087;-68
2022/11/10 02:28:54;;;;;;;5.93;2.80;;;15.80;99.90;;;;;;7509625;79;26802;-67
2022/11/10 02:38:56;;;;;;;6.23;3.03;;;15.90;99.90;;;;;;7534590;77;26443;-66
2022/11/10 02:48:59;;;;;;;5.30;2.40;;;15.60;99.90;;;;;;7542340;79;26404;-66
2022/11/10 02:59:02;;;;;;;3.67;2.50;;;15.60;99.90;;;;;;7541004;77;26857;-66
2022/11/10 03:09:04;;;;;;;5.30;2.33;;;15.70;99.90;;;;;;7533926;77;26333;-69
2022/11/10 03:19:07;;;;;;;6.70;3.03;;;15.80;99.90;;;;;;7535967;77;26329;-66
2022/11/10 03:29:10;;;;;;;5.37;2.57;;;15.80;99.90;;;;;;7535930;79;26317;-67
2022/11/10 03:39:12;;;;;;;4.70;2.30;;;15.80;99.90;;;;;;7532702;77;26322;-66
2022/11/10 03:49:15;;;;;;;4.37;2.40;;;15.80;99.90;;;;;;7520409;79;27483;-66
2022/11/10 03:59:17;;;;;;;6.30;3.17;;;15.70;99.90;;;;;;7503017;79;26649;-66
2022/11/10 04:09:20;;;;;;;4.57;2.67;;;15.60;99.90;;;;;;7507357;77;26770;-69
2022/11/10 04:19:23;;;;;;;4.67;2.17;;;15.60;99.90;;;;;;7527585;77;26341;-67
2022/11/10 04:29:26;;;;;;;5.63;1.97;;;15.80;99.90;;;;;;7536811;77;26855;-67
2022/11/10 04:39:28;;;;;;;4.40;2.60;;;15.70;99.90;;;;;;7466841;77;26387;-68
2022/11/10 04:49:31;;;;;;;4.97;1.83;;;15.60;99.90;;;;;;7492324;77;26296;-67
2022/11/10 04:59:33;;;;;;;6.97;3.37;;;15.60;99.90;;;;;;7520188;77;26414;-68
2022/11/10 05:09:36;;;;;;;5.70;2.07;;;15.50;99.90;;;;;;7512123;77;26309;-67
2022/11/10 05:19:38;;;;;;;7.63;2.50;;;15.60;99.90;;;;;;7514120;79;26301;-66
2022/11/10 05:29:41;;;;;;;6.17;2.30;;;15.70;99.90;;;;;;7543791;77;26372;-66
2022/11/10 05:39:43;;;;;;;5.53;2.60;;;15.60;99.90;;;;;;7540156;79;26764;-66
2022/11/10 05:49:46;;;;;;;6.20;2.33;;;15.60;99.90;;;;;;7531501;77;26270;-66
2022/11/10 05:59:48;;;;;;;5.83;2.37;;;15.70;99.90;;;;;;7546658;79;26983;-68
2022/11/10 06:09:51;;;;;;;4.90;1.90;;;15.50;99.90;;;;;;7541584;79;26348;-67
2022/11/10 06:19:53;;;;;;;7.67;2.83;;;15.60;99.90;;;;;;7527121;77;26547;-67
2022/11/10 06:29:56;;;;;;;5.67;3.00;;;15.40;99.90;;;;;;7521785;77;26614;-67
2022/11/10 06:39:58;;;;;;;7.60;2.97;;;15.50;99.90;;;;;;7540736;77;26349;-67
2022/11/10 06:50:01;;;;;;;5.50;2.80;;;15.50;99.90;;;;;;7522978;77;26352;-66
2022/11/10 07:00:04;;;;;;;5.63;2.03;;;15.40;99.90;;;;;;7525220;77;26839;-67
2022/11/10 07:10:07;;;;;;;5.83;2.30;;;15.60;99.90;;;;;;7533460;79;26694;-67
2022/11/10 07:20:10;;;;;;;5.60;2.53;;;15.40;99.90;;;;;;7544289;77;26293;-67
2022/11/10 07:30:13;;;;;;;3.57;2.47;;;15.60;99.90;;;;;;7529476;79;26280;-67
2022/11/10 07:40:15;;;;;;;4.90;2.43;;;15.60;99.90;;;;;;7535535;77;26306;-66
2022/11/10 07:50:18;;;;;;;4.40;2.07;;;15.60;99.90;;;;;;7525554;77;26297;-67
2022/11/10 08:00:21;;;;;;;6.20;2.47;;;15.70;99.90;;;;;;7534342;77;26403;-64
2022/11/10 08:10:24;;;;;;;4.50;2.20;;;15.50;99.90;;;;;;7533037;77;26404;-64
2022/11/10 08:20:27;;;;;;;8.07;2.57;;;15.70;99.90;;;;;;7527974;77;26290;-64
2022/11/10 08:30:30;;;;;;;6.83;3.13;;;15.70;99.90;;;;;;7539126;77;26662;-64
2022/11/10 08:40:33;;;;;;;8.00;3.07;;;15.80;99.90;;;;;;7548418;79;27364;-64
2022/11/10 08:50:36;;;;;;;9.73;4.00;;;16.00;99.90;;;;;;7545060;79;26384;-64
2022/11/10 09:00:38;;;;;;;6.17;2.23;;;16.10;99.90;;;;;;7520518;79;26288;-64
2022/11/10 09:10:46;;;;;;;7.27;2.70;;;16.10;99.90;;;;;;7544634;79;26838;-64
2022/11/10 09:20:49;;;;;;;7.77;2.57;;;16.30;99.90;;;;;;7546340;79;26306;-64
2022/11/10 09:30:52;;;;;;;10.13;3.17;;;16.40;99.90;;;;;;7547932;79;26302;-64
2022/11/10 09:41:13;;;;;;;10.27;3.33;;;16.60;99.90;;;;;;7536102;79;26283;-64
2022/11/10 09:51:27;;;;;;;8.07;3.37;;;16.80;99.90;;;;;;7502788;77;26329;-64
2022/11/10 10:01:45;;;;;;;9.53;3.90;;;16.90;99.90;;;;;;7530468;77;26329;-64
2022/11/10 10:12:12;;;;;;;9.90;3.63;;;16.90;99.90;;;;;;7541315;79;26412;-63
2022/11/10 10:22:23;;;;;;;12.33;3.77;;;16.90;99.90;;;;;;7526408;79;26298;-64
2022/11/10 10:32:26;;;;;;;12.10;3.33;;;17.20;99.90;;;;;;7511726;77;26383;-63
2022/11/10 10:42:37;;;;;;;14.13;3.70;;;17.30;99.90;;;;;;7534447;79;26329;-63
2022/11/10 10:52:39;;;;;;;8.03;3.27;;;17.10;99.90;;;;;;7532539;79;26395;-63
2022/11/10 11:02:42;;;;;;;6.40;3.43;;;17.20;99.90;;;;;;7529643;79;26395;-64
2022/11/10 11:12:44;;;;;;;11.90;3.97;;;17.30;99.90;;;;;;7541367;79;26463;-64
2022/11/10 11:22:50;;;;;;;11.13;3.67;;;17.10;99.90;;;;;;7535649;79;26314;-64
2022/11/10 11:33:14;;;;;;;10.93;4.00;;;17.30;99.90;;;;;;7532737;77;26979;-64
2022/11/10 11:43:28;;;;;;;10.20;3.00;;;17.20;99.90;;;;;;7536910;79;26367;-65
2022/11/10 11:54:07;;;;;;;9.27;3.47;;;17.10;99.90;;;;;;7527933;77;26412;-65
2022/11/10 12:04:38;;;;;;;14.50;4.13;;;17.10;99.90;;;;;;7519322;79;26399;-66
2022/11/10 12:15:10;;;;;;;10.77;3.30;;;17.20;99.90;;;;;;7530333;77;26435;-65
2022/11/10 12:25:49;;;;;;;10.30;3.10;;;17.30;99.90;;;;;;7513740;77;26861;-65
2022/11/10 12:35:54;;;;;;;14.87;3.83;;;17.20;99.90;;;;;;7525666;77;26387;-66
2022/11/10 12:46:00;;;;;;;6.97;2.97;;;17.20;99.90;;;;;;7524685;77;26270;-66
2022/11/10 12:56:23;;;;;;;11.37;3.40;;;17.20;99.90;;;;;;7522160;79;26297;-66
2022/11/10 13:06:31;;;;;;;6.23;2.73;;;17.10;99.90;;;;;;7536612;78;26799;-66
2022/11/10 13:16:43;;;;;;;11.83;3.27;;;17.20;99.90;;;;;;7508415;77;26336;-65
2022/11/10 13:26:49;;;;;;;11.03;3.93;;;17.20;99.90;;;;;;7548043;79;26879;-66
2022/11/10 13:36:52;;;;;;;10.07;3.33;;;17.00;99.90;;;;;;7525927;79;26314;-64
2022/11/10 13:47:09;;;;;;;9.53;3.43;;;17.10;99.90;;;;;;7527752;79;26416;-65
2022/11/10 13:57:31;;;;;;;8.73;2.63;;;17.10;99.90;;;;;;7503327;77;26946;-64
2022/11/10 14:07:40;;;;;;;6.87;2.47;;;17.10;99.90;;;;;;7509915;77;26321;-65
2022/11/10 14:17:51;;;;;;;10.37;2.93;;;17.00;99.90;;;;;;7539147;79;26306;-64
2022/11/10 14:27:53;;;;;;;10.00;2.40;;;17.20;99.90;;;;;;7488774;79;26293;-64
2022/11/10 14:38:04;;;;;;;8.37;2.40;;;17.00;99.90;;;;;;7518958;77;26270;-69
2022/11/10 14:48:10;;;;;;;8.53;2.30;;;17.10;99.90;;;;;;7537697;79;26391;-65
2022/11/10 14:58:18;;;;;;;7.87;2.37;;;16.90;99.90;;;;;;7535995;79;27333;-65
2022/11/10 15:08:21;;;;;;;8.13;2.87;;;17.00;99.90;;;;;;7521217;79;26344;-65
2022/11/10 15:18:28;;;;;;;5.50;2.23;;;17.10;99.90;;;;;;7536132;79;26325;-65
2022/11/10 15:28:37;;;;;;;9.37;2.87;;;17.00;99.90;;;;;;7512205;79;27040;-66
2022/11/10 15:38:40;;;;;;;6.13;2.50;;;17.00;99.90;;;;;;7546167;79;27114;-67
2022/11/10 15:48:45;;;;;;;9.93;3.20;;;16.80;99.90;;;;;;7535254;79;26332;-65
2022/11/10 15:58:52;;;;;;;21.70;4.60;;;16.80;99.90;;;;;;7535714;79;26310;-67
2022/11/10 16:08:55;;;;;;;7.87;2.90;;;16.80;99.90;;;;;;7547274;79;26810;-67
2022/11/10 16:18:57;;;;;;;5.90;2.50;;;16.90;99.90;;;;;;7548006;77;26310;-67
2022/11/10 16:29:00;;;;;;;6.40;2.43;;;16.90;99.90;;;;;;7547374;79;26294;-67
2022/11/10 16:39:05;;;;;;;4.87;1.97;;;16.70;99.90;;;;;;7548655;79;26274;-67
2022/11/10 16:49:13;;;;;;;6.83;2.43;;;16.70;99.90;;;;;;7522516;77;26262;-67
2022/11/10 16:59:16;;;;;;;10.43;2.83;;;16.70;99.90;;;;;;7522924;79;26445;-67
2022/11/10 17:09:28;;;;;;;8.07;2.30;;;16.60;99.90;;;;;;7533029;79;26334;-67
2022/11/10 17:19:28;;;;;;;10.43;3.03;;;16.70;99.90;;;;;;7539708;77;26297;-67
2022/11/10 17:29:30;;;;;;;9.37;2.30;;;16.60;99.90;;;;;;7548924;79;26384;-66
2022/11/10 17:39:33;;;;;;;6.90;2.40;;;16.60;99.90;;;;;;7537599;77;26811;-67
2022/11/10 17:49:36;;;;;;;5.27;2.20;;;16.60;99.90;;;;;;7545964;77;26360;-70
2022/11/10 17:59:38;;;;;;;6.43;2.47;;;16.60;99.90;;;;;;7528193;77;26772;-66
2022/11/10 18:09:41;;;;;;;8.53;2.70;;;16.50;99.90;;;;;;7548872;79;26325;-67
2022/11/10 18:19:43;;;;;;;5.53;2.63;;;16.50;99.90;;;;;;7526335;77;26285;-66
2022/11/10 18:29:46;;;;;;;6.53;2.70;;;16.50;99.90;;;;;;7515448;77;26415;-66
2022/11/10 18:39:48;;;;;;;8.73;3.17;;;16.40;99.90;;;;;;7516022;79;27008;-66
2022/11/10 18:49:51;;;;;;;8.57;2.97;;;16.40;99.90;;;;;;7514915;79;26371;-66
2022/11/10 18:59:53;;;;;;;6.50;3.33;;;16.40;99.90;;;;;;7526996;77;26317;-67
2022/11/10 19:09:56;;;;;;;4.00;2.57;;;16.20;99.90;;;;;;7512257;79;26349;-67
2022/11/10 19:19:59;;;;;;;7.60;2.60;;;16.40;99.90;;;;;;7530815;79;26387;-66
2022/11/10 19:30:02;;;;;;;8.77;2.60;;;16.20;99.90;;;;;;7527806;77;26402;-67
2022/11/10 19:40:05;;;;;;;7.13;2.77;;;16.40;99.90;;;;;;7534998;77;26312;-67
2022/11/10 19:50:08;;;;;;;5.13;2.50;;;16.30;99.90;;;;;;7497971;77;26305;-66
2022/11/10 20:00:11;;;;;;;6.33;3.30;;;16.20;99.90;;;;;;7528404;79;26277;-67
2022/11/10 20:10:13;;;;;;;8.10;2.90;;;16.20;99.90;;;;;;7528038;79;26480;-67
2022/11/10 20:20:16;;;;;;;6.07;3.30;;;16.00;99.90;;;;;;7492228;77;26278;-66
2022/11/10 20:30:19;;;;;;;7.37;3.70;;;16.10;99.90;;;;;;7522236;77;26308;-67
2022/11/10 20:40:22;;;;;;;8.70;2.97;;;16.00;99.90;;;;;;7518072;79;26865;-67
2022/11/10 20:50:25;;;;;;;9.70;3.47;;;16.10;99.90;;;;;;7505447;77;26895;-67
2022/11/10 21:00:27;;;;;;;7.33;3.53;;;16.00;99.90;;;;;;7523066;77;26392;-66
2022/11/10 21:10:30;;;;;;;5.17;2.90;;;15.90;99.90;;;;;;7522541;79;26395;-66
2022/11/10 21:20:33;;;;;;;8.03;3.20;;;15.90;99.90;;;;;;7522476;77;26305;-67
2022/11/10 21:30:36;;;;;;;6.47;2.83;;;16.00;99.90;;;;;;7519476;77;26458;-67
2022/11/10 21:40:39;;;;;;;5.77;3.30;;;16.00;99.90;;;;;;7537472;79;26739;-67
2022/11/10 21:50:41;;;;;;;7.17;3.17;;;16.00;99.90;;;;;;7519893;77;26321;-68
2022/11/10 22:00:44;;;;;;;5.57;2.80;;;15.80;99.90;;;;;;7511899;77;26345;-67
2022/11/10 22:21:10;;;;;;;6.03;2.87;;;15.90;99.90;;;;;;7527875;77;26697;-67
2022/11/10 22:31:13;;;;;;;5.00;2.60;;;15.70;99.90;;;;;;7526914;79;26327;-67
2022/11/10 22:51:38;;;;;;;6.17;3.13;;;15.80;99.90;;;;;;7496818;77;26305;-66
2022/11/10 23:01:42;;;;;;;4.73;2.83;;;15.80;99.90;;;;;;7500649;77;26415;-68
2022/11/10 23:11:44;;;;;;;5.63;2.83;;;15.60;99.90;;;;;;7495674;77;27156;-66
2022/11/10 23:21:47;;;;;;;4.77;2.70;;;15.70;99.90;;;;;;7490617;77;26402;-66
2022/11/10 23:31:49;;;;;;;4.87;2.53;;;15.70;99.90;;;;;;7500835;77;26274;-65
2022/11/10 23:41:52;;;;;;;5.13;2.60;;;15.70;99.90;;;;;;7513211;77;26842;-65
2022/11/10 23:51:54;;;;;;;6.73;2.93;;;15.60;99.90;;;;;;7502206;77;26482;-66
